sensor_id;sensor_type;location;lat;lon;timestamp;temperature;humidity
4429;DHT22;2227;47.810;8.810;2023-05-16T03:47:08;10.30;99.90
4429;DHT22;2227;47.810;8.810;2023-05-16T03:49:35;10.30;99.90
4429;DHT22;2227;47.810;8.810;2023-05-16T03:52:04;10.30;99.90
4429;DHT22;2227;47.810;8.810;2023-05-16T03:54:31;10.40;99.90
4429;DHT22;2227;47.810;8.810;2023-05-16T03:56:57;10.40;99.90
4429;DHT22;2227;47.810;8.810;2023-05-16T03:59:24;10.40;99.90
4429;DHT22;2227;47.810;8.810;2023-05-16T04:01:51;10.40;99.90
4429;DHT22;2227;47.810;8.810;2023-05-16T04:04:17;10.50;99.90
4429;DHT22;2227;47.810;8.810;2023-05-16T04:06:44;10.60;99.90
4429;DHT22;2227;47.810;8.810;2023-05-16T04:09:11;10.60;99.90
4429;DHT22;2227;47.810;8.810;2023-05-16T04:11:37;10.70;99.90
4429;DHT22;2227;47.810;8.810;2023-05-16T04:14:04;10.70;99.90
4429;DHT22;2227;47.810;8.810;2023-05-16T04:16:31;10.80;99.90
4429;DHT22;2227;47.810;8.810;2023-05-16T04:18:58;10.80;99.90
4429;DHT22;2227;47.810;8.810;2023-05-16T04:21:25;10.80;99.90
4429;DHT22;2227;47.810;8.810;2023-05-16T04:23:51;10.80;99.90
4429;DHT22;2227;47.810;8.810;2023-05-16T04:26:18;10.80;99.90
4429;DHT22;2227;47.810;8.810;2023-05-16T04:28:47;10.80;99.90
4429;DHT22;2227;47.810;8.810;2023-05-16T04:31:14;10.90;99.90
4429;DHT22;2227;47.810;8.810;2023-05-16T04:33:41;10.90;99.90
4429;DHT22;2227;47.810;8.810;2023-05-16T04:36:08;10.90;99.90
4429;DHT22;2227;47.810;8.810;2023-05-16T04:38:34;10.90;99.90
4429;DHT22;2227;47.810;8.810;2023-05-16T04:41:01;10.90;99.90
4429;DHT22;2227;47.810;8.810;2023-05-16T04:43:29;11.00;99.90
4429;DHT22;2227;47.810;8.810;2023-05-16T04:45:55;11.10;99.90
4429;DHT22;2227;47.810;8.810;2023-05-16T04:48:24;11.20;99.90
4429;DHT22;2227;47.810;8.810;2023-05-16T04:50:51;11.30;99.90
4429;DHT22;2227;47.810;8.810;2023-05-16T04:53:17;11.40;99.90
4429;DHT22;2227;47.810;8.810;2023-05-16T04:55:44;11.40;99.90
4429;DHT22;2227;47.810;8.810;2023-05-16T04:58:11;11.40;99.90
4429;DHT22;2227;47.810;8.810;2023-05-16T05:00:38;11.50;99.90
4429;DHT22;2227;47.810;8.810;2023-05-16T05:03:05;11.40;99.90
4429;DHT22;2227;47.810;8.810;2023-05-16T05:05:32;11.50;99.90
4429;DHT22;2227;47.810;8.810;2023-05-16T05:07:59;11.50;99.90
4429;DHT22;2227;47.810;8.810;2023-05-16T05:10:26;11.50;99.90
4429;DHT22;2227;47.810;8.810;2023-05-16T05:12:53;11.50;99.90
4429;DHT22;2227;47.810;8.810;2023-05-16T05:15:20;11.70;99.90
4429;DHT22;2227;47.810;8.810;2023-05-16T05:17:47;11.70;99.90
4429;DHT22;2227;47.810;8.810;2023-05-16T05:20:14;11.80;99.90
4429;DHT22;2227;47.810;8.810;2023-05-16T05:22:40;11.80;99.90
4429;DHT22;2227;47.810;8.810;2023-05-16T05:25:08;11.80;99.90
4429;DHT22;2227;47.810;8.810;2023-05-16T05:27:35;11.90;99.90
4429;DHT22;2227;47.810;8.810;2023-05-16T05:30:02;11.90;99.90
4429;DHT22;2227;47.810;8.810;2023-05-16T05:32:29;12.00;99.90
4429;DHT22;2227;47.810;8.810;2023-05-16T05:34:56;12.20;99.90
4429;DHT22;2227;47.810;8.810;2023-05-16T05:37:23;12.20;99.90
4429;DHT22;2227;47.810;8.810;2023-05-16T05:39:50;12.10;99.90
4429;DHT22;2227;47.810;8.810;2023-05-16T05:42:17;12.20;99.90
4429;DHT22;2227;47.810;8.810;2023-05-16T05:44:44;12.30;99.90
4429;DHT22;2227;47.810;8.810;2023-05-16T05:47:10;12.40;99.90
4429;DHT22;2227;47.810;8.810;2023-05-16T05:49:37;12.50;99.90
4429;DHT22;2227;47.810;8.810;2023-05-16T05:52:04;12.70;99.90
4429;DHT22;2227;47.810;8.810;2023-05-16T05:54:32;12.80;99.90
4429;DHT22;2227;47.810;8.810;2023-05-16T05:56:59;13.00;99.90
4429;DHT22;2227;47.810;8.810;2023-05-16T05:59:26;13.10;99.90
4429;DHT22;2227;47.810;8.810;2023-05-16T06:01:53;13.10;99.90
4429;DHT22;2227;47.810;8.810;2023-05-16T06:04:20;13.10;99.90
4429;DHT22;2227;47.810;8.810;2023-05-16T06:06:47;13.10;99.90
4429;DHT22;2227;47.810;8.810;2023-05-16T06:09:14;13.20;99.90
4429;DHT22;2227;47.810;8.810;2023-05-16T06:11:41;13.30;99.90
4429;DHT22;2227;47.810;8.810;2023-05-16T06:14:08;13.40;99.90
4429;DHT22;2227;47.810;8.810;2023-05-16T06:16:35;13.50;99.90
4429;DHT22;2227;47.810;8.810;2023-05-16T06:19:02;13.50;99.90
4429;DHT22;2227;47.810;8.810;2023-05-16T06:21:29;13.50;99.90
4429;DHT22;2227;47.810;8.810;2023-05-16T06:23:56;13.60;99.90
4429;DHT22;2227;47.810;8.810;2023-05-16T06:26:22;13.60;99.90
4429;DHT22;2227;47.810;8.810;2023-05-16T06:28:50;13.50;99.90
4429;DHT22;2227;47.810;8.810;2023-05-16T06:31:17;13.50;99.90
4429;DHT22;2227;47.810;8.810;2023-05-16T06:33:44;13.40;99.90
4429;DHT22;2227;47.810;8.810;2023-05-16T06:36:11;13.60;99.90
4429;DHT22;2227;47.810;8.810;2023-05-16T06:38:38;13.70;99.90
4429;DHT22;2227;47.810;8.810;2023-05-16T06:41:04;13.80;99.90
4429;DHT22;2227;47.810;8.810;2023-05-16T06:43:31;14.00;99.90
4429;DHT22;2227;47.810;8.810;2023-05-16T06:45:58;14.20;99.90
4429;DHT22;2227;47.810;8.810;2023-05-16T06:48:24;14.30;99.90
4429;DHT22;2227;47.810;8.810;2023-05-16T06:50:51;14.50;99.90
4429;DHT22;2227;47.810;8.810;2023-05-16T06:53:18;14.70;99.90
4429;DHT22;2227;47.810;8.810;2023-05-16T06:55:46;15.00;99.90
4429;DHT22;2227;47.810;8.810;2023-05-16T06:58:12;15.10;99.90
4429;DHT22;2227;47.810;8.810;2023-05-16T07:00:40;15.30;99.90
4429;DHT22;2227;47.810;8.810;2023-05-16T07:03:07;15.50;99.90
4429;DHT22;2227;47.810;8.810;2023-05-16T07:05:33;15.70;99.90
4429;DHT22;2227;47.810;8.810;2023-05-16T07:08:00;15.90;99.90
4429;DHT22;2227;47.810;8.810;2023-05-16T07:10:27;16.10;99.90
4429;DHT22;2227;47.810;8.810;2023-05-16T07:12:54;16.30;99.90
4429;DHT22;2227;47.810;8.810;2023-05-16T07:15:21;16.50;99.90
4429;DHT22;2227;47.810;8.810;2023-05-16T07:17:47;16.60;99.90
4429;DHT22;2227;47.810;8.810;2023-05-16T07:20:16;16.60;99.90
4429;DHT22;2227;47.810;8.810;2023-05-16T07:22:43;16.60;99.90
4429;DHT22;2227;47.810;8.810;2023-05-16T07:25:10;16.70;99.90
4429;DHT22;2227;47.810;8.810;2023-05-16T07:27:39;16.60;99.90
4429;DHT22;2227;47.810;8.810;2023-05-16T07:30:11;16.60;99.90
4429;DHT22;2227;47.810;8.810;2023-05-16T07:32:39;16.60;99.90
4429;DHT22;2227;47.810;8.810;2023-05-16T07:35:06;16.50;99.90
4429;DHT22;2227;47.810;8.810;2023-05-16T07:37:33;16.50;99.90
4429;DHT22;2227;47.810;8.810;2023-05-16T07:40:00;16.40;99.90
4429;DHT22;2227;47.810;8.810;2023-05-16T07:42:27;16.40;99.90
4429;DHT22;2227;47.810;8.810;2023-05-16T07:44:54;16.30;99.90
4429;DHT22;2227;47.810;8.810;2023-05-16T07:47:21;16.30;99.90
4429;DHT22;2227;47.810;8.810;2023-05-16T07:49:47;16.30;99.90
4429;DHT22;2227;47.810;8.810;2023-05-16T07:52:14;16.10;99.90
4429;DHT22;2227;47.810;8.810;2023-05-16T07:54:41;16.20;99.90
4429;DHT22;2227;47.810;8.810;2023-05-16T07:57:08;16.10;99.90
4429;DHT22;2227;47.810;8.810;2023-05-16T07:59:34;15.90;99.90
4429;DHT22;2227;47.810;8.810;2023-05-16T08:02:01;15.90;99.90
4429;DHT22;2227;47.810;8.810;2023-05-16T08:04:28;15.90;99.90
4429;DHT22;2227;47.810;8.810;2023-05-16T08:06:55;15.90;99.90
4429;DHT22;2227;47.810;8.810;2023-05-16T08:09:21;15.90;99.90
4429;DHT22;2227;47.810;8.810;2023-05-16T08:11:48;15.90;99.90
4429;DHT22;2227;47.810;8.810;2023-05-16T08:14:15;16.00;99.90
4429;DHT22;2227;47.810;8.810;2023-05-16T08:16:41;16.00;99.90
4429;DHT22;2227;47.810;8.810;2023-05-16T08:19:08;16.10;99.90
4429;DHT22;2227;47.810;8.810;2023-05-16T08:21:35;16.10;99.90
4429;DHT22;2227;47.810;8.810;2023-05-16T08:24:02;16.20;99.90
4429;DHT22;2227;47.810;8.810;2023-05-16T08:26:31;16.30;99.90
4429;DHT22;2227;47.810;8.810;2023-05-16T08:28:58;16.30;99.90
4429;DHT22;2227;47.810;8.810;2023-05-16T08:31:24;16.10;99.90
4429;DHT22;2227;47.810;8.810;2023-05-16T08:33:51;16.00;99.90
4429;DHT22;2227;47.810;8.810;2023-05-16T08:36:18;15.90;99.90
4429;DHT22;2227;47.810;8.810;2023-05-16T08:38:45;15.90;99.90
4429;DHT22;2227;47.810;8.810;2023-05-16T08:41:12;15.90;99.90
4429;DHT22;2227;47.810;8.810;2023-05-16T08:43:39;16.10;99.90
4429;DHT22;2227;47.810;8.810;2023-05-16T08:46:09;16.10;99.90
4429;DHT22;2227;47.810;8.810;2023-05-16T08:48:37;16.20;99.90
4429;DHT22;2227;47.810;8.810;2023-05-16T08:51:08;16.20;99.90
4429;DHT22;2227;47.810;8.810;2023-05-16T08:53:40;16.30;99.90
4429;DHT22;2227;47.810;8.810;2023-05-16T08:56:09;16.50;99.90
4429;DHT22;2227;47.810;8.810;2023-05-16T08:58:37;16.60;99.90
4429;DHT22;2227;47.810;8.810;2023-05-16T09:01:03;16.60;99.90
4429;DHT22;2227;47.810;8.810;2023-05-16T09:03:37;16.70;99.90
4429;DHT22;2227;47.810;8.810;2023-05-16T09:06:05;16.70;99.90
4429;DHT22;2227;47.810;8.810;2023-05-16T09:08:34;16.60;99.90
4429;DHT22;2227;47.810;8.810;2023-05-16T09:11:01;16.70;99.90
4429;DHT22;2227;47.810;8.810;2023-05-16T09:13:28;16.80;99.90
4429;DHT22;2227;47.810;8.810;2023-05-16T09:16:11;16.70;99.90
4429;DHT22;2227;47.810;8.810;2023-05-16T09:18:39;16.80;99.90
4429;DHT22;2227;47.810;8.810;2023-05-16T09:21:09;16.80;99.90
4429;DHT22;2227;47.810;8.810;2023-05-16T09:23:37;16.70;99.90
4429;DHT22;2227;47.810;8.810;2023-05-16T09:26:04;16.60;99.90
4429;DHT22;2227;47.810;8.810;2023-05-16T09:28:33;16.50;99.90
4429;DHT22;2227;47.810;8.810;2023-05-16T09:31:02;16.40;99.90
4429;DHT22;2227;47.810;8.810;2023-05-16T09:33:29;16.50;99.90
4429;DHT22;2227;47.810;8.810;2023-05-16T09:35:58;16.50;99.90
4429;DHT22;2227;47.810;8.810;2023-05-16T09:38:27;16.70;99.90
4429;DHT22;2227;47.810;8.810;2023-05-16T09:40:54;16.60;99.90
4429;DHT22;2227;47.810;8.810;2023-05-16T09:43:25;16.60;99.90
4429;DHT22;2227;47.810;8.810;2023-05-16T09:45:52;16.60;99.90
4429;DHT22;2227;47.810;8.810;2023-05-16T09:48:20;16.60;99.90
4429;DHT22;2227;47.810;8.810;2023-05-16T09:50:52;16.60;99.90
4429;DHT22;2227;47.810;8.810;2023-05-16T09:53:27;16.70;99.90
4429;DHT22;2227;47.810;8.810;2023-05-16T09:56:10;16.80;99.90
4429;DHT22;2227;47.810;8.810;2023-05-16T09:58:39;16.80;99.90
4429;DHT22;2227;47.810;8.810;2023-05-16T10:01:07;16.70;99.90
4429;DHT22;2227;47.810;8.810;2023-05-16T10:03:35;16.40;99.90
4429;DHT22;2227;47.810;8.810;2023-05-16T10:06:04;16.20;99.90
4429;DHT22;2227;47.810;8.810;2023-05-16T10:08:32;15.90;99.90
4429;DHT22;2227;47.810;8.810;2023-05-16T10:11:05;15.70;99.90
4429;DHT22;2227;47.810;8.810;2023-05-16T10:13:34;15.70;99.90
4429;DHT22;2227;47.810;8.810;2023-05-16T10:16:06;15.50;99.90
4429;DHT22;2227;47.810;8.810;2023-05-16T10:18:34;15.50;99.90
4429;DHT22;2227;47.810;8.810;2023-05-16T10:21:04;15.40;99.90
4429;DHT22;2227;47.810;8.810;2023-05-16T10:23:40;15.50;99.90
4429;DHT22;2227;47.810;8.810;2023-05-16T10:26:10;15.60;99.90
4429;DHT22;2227;47.810;8.810;2023-05-16T10:28:39;15.70;99.90
4429;DHT22;2227;47.810;8.810;2023-05-16T10:31:09;15.70;99.90
4429;DHT22;2227;47.810;8.810;2023-05-16T10:33:37;15.80;99.90
4429;DHT22;2227;47.810;8.810;2023-05-16T10:36:05;15.80;99.90
4429;DHT22;2227;47.810;8.810;2023-05-16T10:38:32;15.70;99.90
4429;DHT22;2227;47.810;8.810;2023-05-16T10:41:00;15.70;99.90
4429;DHT22;2227;47.810;8.810;2023-05-16T10:43:29;15.70;99.90
4429;DHT22;2227;47.810;8.810;2023-05-16T10:45:58;15.70;99.90
4429;DHT22;2227;47.810;8.810;2023-05-16T10:48:35;15.60;99.90
4429;DHT22;2227;47.810;8.810;2023-05-16T10:51:02;15.60;99.90
4429;DHT22;2227;47.810;8.810;2023-05-16T10:53:31;15.60;99.90
4429;DHT22;2227;47.810;8.810;2023-05-16T11:14:06;15.00;99.90
4429;DHT22;2227;47.810;8.810;2023-05-16T11:16:34;15.10;99.90
4429;DHT22;2227;47.810;8.810;2023-05-16T11:19:05;15.20;99.90
4429;DHT22;2227;47.810;8.810;2023-05-16T11:24:38;15.10;99.90
4429;DHT22;2227;47.810;8.810;2023-05-16T11:27:05;15.00;99.90
4429;DHT22;2227;47.810;8.810;2023-05-16T11:29:34;14.90;99.90
4429;DHT22;2227;47.810;8.810;2023-05-16T11:32:03;15.00;99.90
4429;DHT22;2227;47.810;8.810;2023-05-16T11:34:31;15.20;99.90
4429;DHT22;2227;47.810;8.810;2023-05-16T11:37:01;15.40;99.90
4429;DHT22;2227;47.810;8.810;2023-05-16T11:39:30;15.60;99.90
4429;DHT22;2227;47.810;8.810;2023-05-16T11:41:57;15.80;99.90
4429;DHT22;2227;47.810;8.810;2023-05-16T11:44:24;15.90;99.90
4429;DHT22;2227;47.810;8.810;2023-05-16T11:46:51;16.10;99.90
4429;DHT22;2227;47.810;8.810;2023-05-16T11:49:18;15.80;99.90
4429;DHT22;2227;47.810;8.810;2023-05-16T11:51:45;15.80;99.90
4429;DHT22;2227;47.810;8.810;2023-05-16T11:54:12;15.80;99.90
4429;DHT22;2227;47.810;8.810;2023-05-16T11:56:39;15.90;99.90
4429;DHT22;2227;47.810;8.810;2023-05-16T11:59:09;15.80;99.90
4429;DHT22;2227;47.810;8.810;2023-05-16T12:01:37;15.80;99.90
4429;DHT22;2227;47.810;8.810;2023-05-16T12:04:11;15.80;99.90
4429;DHT22;2227;47.810;8.810;2023-05-16T12:06:39;16.00;99.90
4429;DHT22;2227;47.810;8.810;2023-05-16T12:09:13;16.00;99.90
4429;DHT22;2227;47.810;8.810;2023-05-16T12:11:43;16.00;99.90
4429;DHT22;2227;47.810;8.810;2023-05-16T12:14:11;15.80;99.90
4429;DHT22;2227;47.810;8.810;2023-05-16T12:16:39;15.60;99.90
4429;DHT22;2227;47.810;8.810;2023-05-16T12:19:10;15.70;99.90
4429;DHT22;2227;47.810;8.810;2023-05-16T12:21:37;15.90;99.90
4429;DHT22;2227;47.810;8.810;2023-05-16T12:24:04;15.90;99.90
4429;DHT22;2227;47.810;8.810;2023-05-16T12:26:34;16.20;99.90
4429;DHT22;2227;47.810;8.810;2023-05-16T12:29:02;16.30;99.90
4429;DHT22;2227;47.810;8.810;2023-05-16T12:31:39;16.40;99.90
4429;DHT22;2227;47.810;8.810;2023-05-16T12:34:17;16.60;99.90
4429;DHT22;2227;47.810;8.810;2023-05-16T12:36:44;16.60;99.90
4429;DHT22;2227;47.810;8.810;2023-05-16T12:39:12;16.70;99.90
4429;DHT22;2227;47.810;8.810;2023-05-16T12:41:40;16.70;99.90
4429;DHT22;2227;47.810;8.810;2023-05-16T12:44:15;16.60;99.90
4429;DHT22;2227;47.810;8.810;2023-05-16T12:46:48;16.70;99.90
4429;DHT22;2227;47.810;8.810;2023-05-16T12:49:19;16.70;99.90
4429;DHT22;2227;47.810;8.810;2023-05-16T12:51:50;16.60;99.90
4429;DHT22;2227;47.810;8.810;2023-05-16T12:54:18;16.50;99.90
4429;DHT22;2227;47.810;8.810;2023-05-16T12:56:46;16.40;99.90
4429;DHT22;2227;47.810;8.810;2023-05-16T12:59:13;16.20;99.90
4429;DHT22;2227;47.810;8.810;2023-05-16T13:01:40;16.00;99.90
4429;DHT22;2227;47.810;8.810;2023-05-16T13:04:07;15.90;99.90
4429;DHT22;2227;47.810;8.810;2023-05-16T13:06:34;15.70;99.90
4429;DHT22;2227;47.810;8.810;2023-05-16T13:09:21;15.70;99.90
4429;DHT22;2227;47.810;8.810;2023-05-16T13:11:49;15.60;99.90
4429;DHT22;2227;47.810;8.810;2023-05-16T13:14:16;15.60;99.90
4429;DHT22;2227;47.810;8.810;2023-05-16T13:16:43;15.60;99.90
4429;DHT22;2227;47.810;8.810;2023-05-16T13:19:10;15.40;99.90
4429;DHT22;2227;47.810;8.810;2023-05-16T13:21:37;15.40;99.90
4429;DHT22;2227;47.810;8.810;2023-05-16T13:24:04;15.30;99.90
4429;DHT22;2227;47.810;8.810;2023-05-16T13:26:31;15.10;99.90
4429;DHT22;2227;47.810;8.810;2023-05-16T13:28:58;15.20;99.90
4429;DHT22;2227;47.810;8.810;2023-05-16T13:31:24;15.20;99.90
4429;DHT22;2227;47.810;8.810;2023-05-16T13:33:51;15.40;99.90
4429;DHT22;2227;47.810;8.810;2023-05-16T13:36:18;15.40;99.90
4429;DHT22;2227;47.810;8.810;2023-05-16T13:38:45;15.40;99.90
4429;DHT22;2227;47.810;8.810;2023-05-16T13:41:11;15.40;99.90
4429;DHT22;2227;47.810;8.810;2023-05-16T13:43:38;15.40;99.90
4429;DHT22;2227;47.810;8.810;2023-05-16T13:46:05;15.30;99.90
4429;DHT22;2227;47.810;8.810;2023-05-16T13:48:32;15.10;99.90
4429;DHT22;2227;47.810;8.810;2023-05-16T13:50:58;15.00;99.90
4429;DHT22;2227;47.810;8.810;2023-05-16T13:53:25;14.90;99.90
4429;DHT22;2227;47.810;8.810;2023-05-16T13:55:52;14.90;99.90
4429;DHT22;2227;47.810;8.810;2023-05-16T13:58:19;14.90;99.90
4429;DHT22;2227;47.810;8.810;2023-05-16T14:00:47;14.90;99.90
4429;DHT22;2227;47.810;8.810;2023-05-16T14:03:14;15.00;99.90
4429;DHT22;2227;47.810;8.810;2023-05-16T14:05:41;15.00;99.90
4429;DHT22;2227;47.810;8.810;2023-05-16T14:08:08;15.10;99.90
4429;DHT22;2227;47.810;8.810;2023-05-16T14:10:35;15.00;99.90
4429;DHT22;2227;47.810;8.810;2023-05-16T14:13:02;15.00;99.90
4429;DHT22;2227;47.810;8.810;2023-05-16T14:15:29;15.00;99.90
4429;DHT22;2227;47.810;8.810;2023-05-16T14:17:56;15.00;99.90
4429;DHT22;2227;47.810;8.810;2023-05-16T14:20:23;15.00;99.90
4429;DHT22;2227;47.810;8.810;2023-05-16T14:22:50;15.00;99.90
4429;DHT22;2227;47.810;8.810;2023-05-16T14:25:16;15.00;99.90
4429;DHT22;2227;47.810;8.810;2023-05-16T14:27:43;15.00;99.90
4429;DHT22;2227;47.810;8.810;2023-05-16T14:30:10;15.00;99.90
4429;DHT22;2227;47.810;8.810;2023-05-16T14:32:37;15.00;99.90
4429;DHT22;2227;47.810;8.810;2023-05-16T14:35:04;15.00;99.90
4429;DHT22;2227;47.810;8.810;2023-05-16T14:37:31;15.00;99.90
4429;DHT22;2227;47.810;8.810;2023-05-16T14:39:57;14.90;99.90
4429;DHT22;2227;47.810;8.810;2023-05-16T14:42:26;15.00;99.90
4429;DHT22;2227;47.810;8.810;2023-05-16T14:44:52;14.90;99.90
4429;DHT22;2227;47.810;8.810;2023-05-16T14:47:19;14.80;99.90
4429;DHT22;2227;47.810;8.810;2023-05-16T14:49:46;14.80;99.90
4429;DHT22;2227;47.810;8.810;2023-05-16T14:52:13;14.70;99.90
4429;DHT22;2227;47.810;8.810;2023-05-16T14:54:39;14.70;99.90
4429;DHT22;2227;47.810;8.810;2023-05-16T14:57:06;14.70;99.90
4429;DHT22;2227;47.810;8.810;2023-05-16T14:59:33;14.70;99.90
4429;DHT22;2227;47.810;8.810;2023-05-16T15:02:00;14.70;99.90
4429;DHT22;2227;47.810;8.810;2023-05-16T15:04:27;14.70;99.90
4429;DHT22;2227;47.810;8.810;2023-05-16T15:06:54;14.70;99.90
4429;DHT22;2227;47.810;8.810;2023-05-16T15:09:21;14.60;99.90
4429;DHT22;2227;47.810;8.810;2023-05-16T15:11:48;14.50;99.90
4429;DHT22;2227;47.810;8.810;2023-05-16T15:14:15;14.50;99.90
4429;DHT22;2227;47.810;8.810;2023-05-16T15:16:42;14.50;99.90
4429;DHT22;2227;47.810;8.810;2023-05-16T15:19:09;14.50;99.90
4429;DHT22;2227;47.810;8.810;2023-05-16T15:21:35;14.60;99.90
4429;DHT22;2227;47.810;8.810;2023-05-16T15:24:02;14.70;99.90
4429;DHT22;2227;47.810;8.810;2023-05-16T15:26:29;14.90;99.90
4429;DHT22;2227;47.810;8.810;2023-05-16T15:28:56;15.10;99.90
4429;DHT22;2227;47.810;8.810;2023-05-16T15:31:23;15.10;99.90
4429;DHT22;2227;47.810;8.810;2023-05-16T15:33:50;15.10;99.90
4429;DHT22;2227;47.810;8.810;2023-05-16T15:36:16;15.10;99.90
4429;DHT22;2227;47.810;8.810;2023-05-16T15:38:43;15.10;99.90
4429;DHT22;2227;47.810;8.810;2023-05-16T15:41:11;15.10;99.90
4429;DHT22;2227;47.810;8.810;2023-05-16T15:43:59;15.00;99.90
4429;DHT22;2227;47.810;8.810;2023-05-16T15:46:25;14.90;99.90
4429;DHT22;2227;47.810;8.810;2023-05-16T15:48:52;14.80;99.90
4429;DHT22;2227;47.810;8.810;2023-05-16T15:51:19;14.70;99.90
4429;DHT22;2227;47.810;8.810;2023-05-16T15:53:46;14.70;99.90
4429;DHT22;2227;47.810;8.810;2023-05-16T15:56:13;14.80;99.90
4429;DHT22;2227;47.810;8.810;2023-05-16T15:58:40;14.80;99.90
4429;DHT22;2227;47.810;8.810;2023-05-16T16:01:06;14.90;99.90
4429;DHT22;2227;47.810;8.810;2023-05-16T16:03:33;14.80;99.90
4429;DHT22;2227;47.810;8.810;2023-05-16T16:06:00;14.80;99.90
4429;DHT22;2227;47.810;8.810;2023-05-16T16:08:27;14.70;99.90
4429;DHT22;2227;47.810;8.810;2023-05-16T16:10:54;14.70;99.90
4429;DHT22;2227;47.810;8.810;2023-05-16T16:13:21;14.70;99.90
4429;DHT22;2227;47.810;8.810;2023-05-16T16:15:49;14.60;99.90
4429;DHT22;2227;47.810;8.810;2023-05-16T16:18:16;14.40;99.90
4429;DHT22;2227;47.810;8.810;2023-05-16T16:20:43;14.50;99.90
4429;DHT22;2227;47.810;8.810;2023-05-16T16:23:10;14.50;99.90
4429;DHT22;2227;47.810;8.810;2023-05-16T16:25:37;14.50;99.90
4429;DHT22;2227;47.810;8.810;2023-05-16T16:28:03;14.40;99.90
4429;DHT22;2227;47.810;8.810;2023-05-16T16:30:30;14.30;99.90
4429;DHT22;2227;47.810;8.810;2023-05-16T16:32:57;14.20;99.90
4429;DHT22;2227;47.810;8.810;2023-05-16T16:35:25;14.10;99.90
4429;DHT22;2227;47.810;8.810;2023-05-16T16:37:52;14.10;99.90
4429;DHT22;2227;47.810;8.810;2023-05-16T16:40:32;14.00;99.90
4429;DHT22;2227;47.810;8.810;2023-05-16T16:42:58;13.70;99.90
4429;DHT22;2227;47.810;8.810;2023-05-16T16:45:25;13.60;99.90
4429;DHT22;2227;47.810;8.810;2023-05-16T16:47:52;13.40;99.90
4429;DHT22;2227;47.810;8.810;2023-05-16T16:50:19;13.30;99.90
4429;DHT22;2227;47.810;8.810;2023-05-16T16:52:46;13.30;99.90
4429;DHT22;2227;47.810;8.810;2023-05-16T16:55:13;13.20;99.90
4429;DHT22;2227;47.810;8.810;2023-05-16T16:57:41;13.10;99.90
4429;DHT22;2227;47.810;8.810;2023-05-16T17:00:09;13.20;99.90
4429;DHT22;2227;47.810;8.810;2023-05-16T17:02:36;13.10;99.90
4429;DHT22;2227;47.810;8.810;2023-05-16T17:05:08;13.20;99.90
4429;DHT22;2227;47.810;8.810;2023-05-16T17:07:35;13.10;99.90
4429;DHT22;2227;47.810;8.810;2023-05-16T17:10:02;13.10;99.90
4429;DHT22;2227;47.810;8.810;2023-05-16T17:12:30;13.20;99.90
4429;DHT22;2227;47.810;8.810;2023-05-16T17:15:00;13.30;99.90
4429;DHT22;2227;47.810;8.810;2023-05-16T17:17:27;13.20;99.90
4429;DHT22;2227;47.810;8.810;2023-05-16T17:19:54;13.20;99.90
4429;DHT22;2227;47.810;8.810;2023-05-16T17:22:20;13.10;99.90
4429;DHT22;2227;47.810;8.810;2023-05-16T17:24:47;13.00;99.90
4429;DHT22;2227;47.810;8.810;2023-05-16T17:27:14;12.90;99.90
4429;DHT22;2227;47.810;8.810;2023-05-16T17:29:41;13.00;99.90
4429;DHT22;2227;47.810;8.810;2023-05-16T17:32:08;13.00;99.90
4429;DHT22;2227;47.810;8.810;2023-05-16T17:34:34;13.00;99.90
4429;DHT22;2227;47.810;8.810;2023-05-16T17:37:01;13.00;99.90
4429;DHT22;2227;47.810;8.810;2023-05-16T17:39:31;13.00;99.90
4429;DHT22;2227;47.810;8.810;2023-05-16T17:41:57;13.00;99.90
4429;DHT22;2227;47.810;8.810;2023-05-16T17:44:24;12.90;99.90
4429;DHT22;2227;47.810;8.810;2023-05-16T17:46:51;12.80;99.90
4429;DHT22;2227;47.810;8.810;2023-05-16T17:49:19;12.80;99.90
4429;DHT22;2227;47.810;8.810;2023-05-16T17:51:48;12.70;99.90
4429;DHT22;2227;47.810;8.810;2023-05-16T17:54:16;12.70;99.90
4429;DHT22;2227;47.810;8.810;2023-05-16T17:56:44;12.70;99.90
4429;DHT22;2227;47.810;8.810;2023-05-16T17:59:12;12.70;99.90
4429;DHT22;2227;47.810;8.810;2023-05-16T18:01:39;12.70;99.90
4429;DHT22;2227;47.810;8.810;2023-05-16T18:04:07;12.70;99.90
4429;DHT22;2227;47.810;8.810;2023-05-16T18:06:36;12.60;99.90
4429;DHT22;2227;47.810;8.810;2023-05-16T18:09:03;12.60;99.90
4429;DHT22;2227;47.810;8.810;2023-05-16T18:11:33;12.50;99.90
4429;DHT22;2227;47.810;8.810;2023-05-16T18:13:59;12.50;99.90
4429;DHT22;2227;47.810;8.810;2023-05-16T18:16:28;12.50;99.90
4429;DHT22;2227;47.810;8.810;2023-05-16T18:18:56;12.50;99.90
4429;DHT22;2227;47.810;8.810;2023-05-16T18:21:24;12.50;99.90
4429;DHT22;2227;47.810;8.810;2023-05-16T18:23:50;12.40;99.90
4429;DHT22;2227;47.810;8.810;2023-05-16T18:26:18;12.40;99.90
4429;DHT22;2227;47.810;8.810;2023-05-16T18:28:45;12.40;99.90
4429;DHT22;2227;47.810;8.810;2023-05-16T18:31:12;12.40;99.90
4429;DHT22;2227;47.810;8.810;2023-05-16T18:33:38;12.40;99.90
4429;DHT22;2227;47.810;8.810;2023-05-16T18:36:05;12.30;99.90
4429;DHT22;2227;47.810;8.810;2023-05-16T18:38:32;12.30;99.90
4429;DHT22;2227;47.810;8.810;2023-05-16T18:41:01;12.20;99.90
4429;DHT22;2227;47.810;8.810;2023-05-16T18:43:28;12.10;99.90
4429;DHT22;2227;47.810;8.810;2023-05-16T18:45:56;12.10;99.90
4429;DHT22;2227;47.810;8.810;2023-05-16T18:48:23;12.20;99.90
4429;DHT22;2227;47.810;8.810;2023-05-16T18:50:50;12.20;99.90
4429;DHT22;2227;47.810;8.810;2023-05-16T18:53:18;12.20;99.90
4429;DHT22;2227;47.810;8.810;2023-05-16T18:55:44;12.10;99.90
4429;DHT22;2227;47.810;8.810;2023-05-16T18:58:11;12.10;99.90
4429;DHT22;2227;47.810;8.810;2023-05-16T19:00:38;12.10;99.90
4429;DHT22;2227;47.810;8.810;2023-05-16T19:03:05;12.10;99.90
4429;DHT22;2227;47.810;8.810;2023-05-16T19:05:31;12.10;99.90
4429;DHT22;2227;47.810;8.810;2023-05-16T19:08:00;12.10;99.90
4429;DHT22;2227;47.810;8.810;2023-05-16T19:10:26;12.10;99.90
4429;DHT22;2227;47.810;8.810;2023-05-16T19:12:53;12.00;99.90
4429;DHT22;2227;47.810;8.810;2023-05-16T19:15:20;12.00;99.90
4429;DHT22;2227;47.810;8.810;2023-05-16T19:17:47;12.00;99.90
4429;DHT22;2227;47.810;8.810;2023-05-16T19:20:13;12.00;99.90
4429;DHT22;2227;47.810;8.810;2023-05-16T19:22:40;11.90;99.90
4429;DHT22;2227;47.810;8.810;2023-05-16T19:25:07;11.90;99.90
4429;DHT22;2227;47.810;8.810;2023-05-16T19:27:34;12.00;99.90
4429;DHT22;2227;47.810;8.810;2023-05-16T19:30:01;12.00;99.90
4429;DHT22;2227;47.810;8.810;2023-05-16T19:32:28;11.90;99.90
4429;DHT22;2227;47.810;8.810;2023-05-16T19:34:55;11.90;99.90
4429;DHT22;2227;47.810;8.810;2023-05-16T19:37:23;11.90;99.90
4429;DHT22;2227;47.810;8.810;2023-05-16T19:39:49;11.90;99.90
4429;DHT22;2227;47.810;8.810;2023-05-16T19:42:16;11.90;99.90
4429;DHT22;2227;47.810;8.810;2023-05-16T19:44:43;11.90;99.90
4429;DHT22;2227;47.810;8.810;2023-05-16T19:47:10;11.90;99.90
4429;DHT22;2227;47.810;8.810;2023-05-16T19:49:36;11.80;99.90
4429;DHT22;2227;47.810;8.810;2023-05-16T19:52:03;11.70;99.90
4429;DHT22;2227;47.810;8.810;2023-05-16T19:54:33;11.80;99.90
4429;DHT22;2227;47.810;8.810;2023-05-16T19:57:00;11.80;99.90
4429;DHT22;2227;47.810;8.810;2023-05-16T19:59:27;11.80;99.90
4429;DHT22;2227;47.810;8.810;2023-05-16T20:01:54;11.70;99.90
4429;DHT22;2227;47.810;8.810;2023-05-16T20:04:20;11.70;99.90
4429;DHT22;2227;47.810;8.810;2023-05-16T20:06:47;11.70;99.90
4429;DHT22;2227;47.810;8.810;2023-05-16T20:09:14;11.70;99.90
4429;DHT22;2227;47.810;8.810;2023-05-16T20:11:41;11.70;99.90